• Join FlightAware (Why Join?)
  • Login
  • US Flag 
07:43PM EDT


 

Airport Tracker/Info


-or-


 

Live Flight TrackerFlight Track Log ✈ C-GDBS ✈ 10-Jul-2013 ✈ CYKZ - CYCK / XCM

Flight Track Log - Related Links

Times and Time Zones

All times are in EDT time to prevent confusion due to time zone crossing. See the C-GDBS flight status page for this flight to view local times or setup timezone preferences in your user account.

Time Position Orientation Groundspeed Altitude Reporting Facility
EDT Latitude Longitude Course Direction KTS MPH feet Rate Location/Type
06:15AM 43.8833 -79.3833 324° Northwest 130 150 1,300  Level Toronto Center
06:16AM 43.9000 -79.4000 324° Northwest 130 150 2,100 720 Climbing Toronto Center
06:17AM 43.9500 -79.4167 347° North 140 161 2,800 420 Climbing Toronto Center
06:18AM 43.9667 -79.4667 295° West 140 161 3,000 60 Climbing Toronto Center
06:19AM 43.9667 -79.5333 270° West 140 161 3,000 60 Level Toronto Center
06:20AM 43.9667 -79.5833 270° West 140 161 3,200 300 Climbing Toronto Center
06:21AM 43.9667 -79.6333 270° West 130 150 3,600 360 Climbing Toronto Center
06:22AM 43.9500 -79.6833 245° Southwest 120 138 4,000 180 Climbing Toronto Center
06:23AM 43.9500 -79.7333 270° West 130 150 4,000  Level Toronto Center
06:24AM 43.9333 -79.7667 235° Southwest 140 161 4,000  Level Toronto Center
06:25AM 43.9333 -79.8167 270° West 140 161 4,100  Climbing Toronto Center
06:26AM 43.9167 -79.8833 251° West 140 161 4,100 -60 Level Toronto Center
06:27AM 43.9000 -79.9333 245° Southwest 140 161 4,000  Descending Toronto Center
06:28AM 43.8667 -79.9833 227° Southwest 140 161 4,100  Climbing Toronto Center
06:29AM 43.8500 -80.0333 245° Southwest 140 161 4,000 -60 Descending Toronto Center
06:30AM 43.8333 -80.0667 235° Southwest 140 161 4,000  Level Toronto Center
06:31AM 43.8000 -80.1000 216° Southwest 140 161 4,000  Level Toronto Center
06:32AM 43.7833 -80.1333 235° Southwest 140 161 4,000  Level Toronto Center
06:33AM 43.7667 -80.1833 245° Southwest 140 161 4,000  Level Toronto Center
06:34AM 43.7333 -80.2333 227° Southwest 140 161 4,000  Level Toronto Center
06:35AM 43.7167 -80.2833 245° Southwest 140 161 4,000  Level Toronto Center
06:36AM 43.6833 -80.3167 216° Southwest 150 173 4,000  Level Toronto Center
06:37AM 43.6667 -80.3667 245° Southwest 140 161 4,000 240 Level Toronto Center
06:38AM 43.6500 -80.4167 245° Southwest 140 161 4,500 480 Climbing Toronto Center
06:39AM 43.6167 -80.4333 200° South 130 150 5,000 240 Climbing Toronto Center
06:40AM 43.6000 -80.5000 251° West 150 173 5,000  Level Toronto Center
06:41AM 43.5667 -80.5333 216° Southwest 150 173 5,000  Level Toronto Center
06:42AM 43.5500 -80.5833 245° Southwest 150 173 5,000  Level Toronto Center
06:43AM 43.5167 -80.6167 216° Southwest 150 173 5,000 -240 Level Toronto Center
06:44AM 43.5000 -80.6667 245° Southwest 150 173 4,600 -420 Descending Toronto Center
06:45AM 43.4667 -80.7167 227° Southwest 160 184 4,200 -300 Descending Toronto Center
06:46AM 43.4333 -80.7833 235° Southwest 160 184 4,000 -120 Descending Toronto Center
06:47AM 43.4000 -80.8333 227° Southwest 150 173 4,000  Level Toronto Center
06:48AM 43.3833 -80.8667 235° Southwest 150 173 4,000  Level Toronto Center
06:49AM 43.3500 -80.9000 216° Southwest 150 173 4,000  Level Toronto Center
06:50AM 43.3000 -80.9167 194° South 160 184 4,000  Level Toronto Center
06:51AM 43.2667 -80.9333 200° South 150 173 4,000  Level Toronto Center
06:52AM 43.2333 -80.9833 228° Southwest 160 184 4,100  Climbing Toronto Center
06:53AM 43.2000 -81.0000 200° South 160 184 4,000 -60 Descending Toronto Center
06:54AM 43.1500 -81.0333 206° Southwest 160 184 4,000  Level Toronto Center
06:55AM 43.1167 -81.0667 216° Southwest 160 184 4,000  Level Toronto Center
06:56AM 43.0833 -81.1000 216° Southwest 160 184 4,000  Level Toronto Center
06:57AM 43.0500 -81.1167 200° South 160 184 4,000  Level Toronto Center
06:58AM 43.0000 -81.1667 216° Southwest 160 184 4,000 -60 Level Toronto Center
06:59AM 42.9833 -81.2000 236° Southwest 150 173 3,900  Descending Toronto Center
07:00AM 42.9500 -81.2500 228° Southwest 150 173 4,000  Climbing Toronto Center
07:01AM 42.9167 -81.2667 200° South 160 184 4,000  Level Toronto Center
07:02AM 42.8833 -81.3167 228° Southwest 150 173 4,000  Level Toronto Center
07:03AM 42.8667 -81.3667 246° West 160 184 4,000  Level Toronto Center
07:04AM 42.8428 -81.4100 233° Southwest 155 178 4,000  Level Cleveland Center
07:05AM 42.8153 -81.4492 226° Southwest 155 178 4,000  Level Cleveland Center
07:06AM 42.7797 -81.4939 223° Southwest 160 184 4,000  Level Cleveland Center
07:07AM 42.7458 -81.5331 220° Southwest 160 184 4,000 -60 Level Cleveland Center
07:08AM 42.7122 -81.5750 223° Southwest 160 184 3,900 -60 Descending Cleveland Center
07:09AM 42.6786 -81.6083 216° Southwest 160 184 3,900 -240 Level Cleveland Center
07:10AM 42.6450 -81.6531 224° Southwest 160 184 3,500 -300 Descending Cleveland Center
07:11AM 42.6092 -81.6947 221° Southwest 165 190 3,300 -180 Descending Cleveland Center
07:12AM 42.5733 -81.7250 212° Southwest 160 184 3,200 -60 Descending Cleveland Center
07:13AM 42.5458 -81.7697 230° Southwest 160 184 3,200  Level Cleveland Center
07:14AM 42.5119 -81.8083 220° Southwest 160 184 3,300  Climbing Cleveland Center
07:15AM 42.4825 -81.8472 224° Southwest 160 184 3,300  Level Cleveland Center
07:16AM 42.4467 -81.8858 218° Southwest 160 184 3,300  Level Cleveland Center
07:17AM 42.4150 -81.9219 220° Southwest 160 184 3,300  Level Cleveland Center
07:18AM 42.3853 -81.9633 226° Southwest 155 178 3,400  Climbing Cleveland Center
07:19AM 42.3575 -82.0050 228° Southwest 150 173 3,400  Level Cleveland Center
07:20AM 42.3278 -82.0547 231° Southwest 156 180 3,400 -120 Level Cleveland Center
07:21AM 42.3358 -82.0886 288° West 113 130 3,200 -360 Descending Cleveland Center
07:22AM 42.3822 -82.0364 40° Northeast 54 62 2,700 -360 Descending Cleveland Center
07:23AM 42.4161 -81.9894 46° Northeast 105 121 2,500 -240 Descending Cleveland Center
07:24AM 42.4250 -81.9389 77° East 110 127 2,300 -180 Descending Cleveland Center
07:25AM 42.3958 -81.9525 199° South 43 49 2,200 -240 Descending Cleveland Center
07:26AM 42.3744 -81.9856 229° Southwest 81 93 1,900 -300 Descending Cleveland Center
07:27AM 42.3594 -82.0192 239° Southwest 104 120 1,600 -240 Descending Cleveland Center
07:28AM 42.3406 -82.0411 221° Southwest 104 120 1,500 840 Descending Cleveland Center
07:29AM 42.3192 -82.0686 224° Southwest 104 120 3,300 900 Climbing Cleveland Center
07:30AM 42.2981 -82.0964 224° Southwest 104 120 3,300  Level Cleveland Center
07:31AM 42.2769 -82.1239 224° Southwest 104 120 3,300  Level Cleveland Center
07:32AM 42.2683 -82.1347 223° Southwest 104 120 3,300  Level Cleveland Center
07:34AM 42.2683 -82.1347 334° Northwest 104 120 3,300  Level Cleveland Center
07:36AM 42.2683 -82.1347 334° Northwest 104 120 3,300  Level Cleveland Center